LFRJ 221630Z AUTO 25015KT 9000 OVC005 11/11 Q1028

ElémentsDécodage
LFRJ Station météo située sur l'aérodrome de LANDIVISIAU
221630Z émis le 22 du mois à 16h30 UTC
AUTO Bulletin édité par un automate
25015KT vent du 250°, 15 noeuds
9000 visibilité horizontale de 9000 mètres
OVC005 couverture nuageuse totale (8/8) à 500 pieds
11/11 température 11°C, point de rosée 11°C
 soit une humidité relative de 100%
Q1028 la pression au niveau de la mer (QNH) est de 1028 hPa